Time;durP1;ratioP1;P1;durP2;ratioP2;P2;SDS_P1;SDS_P2;PMS_P1;PMS_P2;Temp;Humidity;BMP_temperature;BMP_pressure;BME280_temperature;BME280_humidity;BME280_pressure;Samples;Min_cycle;Max_cycle;Signal;HPM_P1;HPM_P2
2021/04/16 00:00:52;;;;;;;5.75;2.47;;;3.30;99.90;;;;;;5026525;28;20050;-83
2021/04/16 00:03:19;;;;;;;7.20;2.50;;;3.20;99.90;;;;;;5024714;28;20441;-84
2021/04/16 00:05:46;;;;;;;3.20;2.08;;;3.20;99.90;;;;;;5017442;28;20057;-84
2021/04/16 00:08:20;;;;;;;5.10;2.30;;;3.20;99.90;;;;;;5010245;28;20540;-83
2021/04/16 00:10:50;;;;;;;5.10;2.80;;;3.20;99.90;;;;;;5025242;28;20079;-84
2021/04/16 00:13:18;;;;;;;2.65;1.88;;;3.20;99.90;;;;;;5025098;28;20084;-83
2021/04/16 00:15:46;;;;;;;6.05;2.45;;;3.20;99.90;;;;;;5006855;28;20049;-84
2021/04/16 00:18:15;;;;;;;4.05;2.45;;;3.10;99.90;;;;;;5009051;28;20995;-85
2021/04/16 00:20:42;;;;;;;7.25;2.60;;;3.10;99.90;;;;;;5011562;28;20132;-82
2021/04/16 00:23:08;;;;;;;4.88;2.53;;;3.10;99.90;;;;;;5012227;28;20127;-84
2021/04/16 00:25:35;;;;;;;4.40;2.28;;;3.10;99.90;;;;;;5008204;28;20136;-84
2021/04/16 00:28:03;;;;;;;5.65;2.83;;;3.10;99.90;;;;;;5013704;28;20053;-83
2021/04/16 00:30:36;;;;;;;6.00;3.42;;;3.10;99.90;;;;;;5010378;28;20054;-85
2021/04/16 00:33:04;;;;;;;4.53;2.27;;;3.00;99.90;;;;;;5006535;28;20057;-84
2021/04/16 00:35:30;;;;;;;4.28;3.20;;;3.00;99.90;;;;;;5023836;28;20064;-84
2021/04/16 00:37:57;;;;;;;4.45;2.30;;;3.00;99.90;;;;;;5025183;28;20054;-84
2021/04/16 00:40:29;;;;;;;2.70;2.30;;;2.90;99.90;;;;;;5015451;28;20072;-83
2021/04/16 00:42:57;;;;;;;4.18;2.67;;;2.90;99.90;;;;;;5007981;28;20049;-84
2021/04/16 00:45:26;;;;;;;3.58;2.45;;;2.90;99.90;;;;;;5007744;28;20064;-85
2021/04/16 00:47:54;;;;;;;3.20;2.38;;;2.80;99.90;;;;;;5025632;28;20109;-85
2021/04/16 00:50:31;;;;;;;5.32;2.58;;;2.80;99.90;;;;;;5021848;28;20049;-85
2021/04/16 00:53:00;;;;;;;5.75;3.10;;;2.70;99.90;;;;;;5023595;28;20069;-85
2021/04/16 00:55:27;;;;;;;7.25;3.10;;;2.70;99.90;;;;;;5007444;28;20624;-85
2021/04/16 00:57:54;;;;;;;5.00;2.83;;;2.60;99.90;;;;;;5010759;28;20093;-85
2021/04/16 01:00:21;;;;;;;4.53;2.67;;;2.60;99.90;;;;;;5025257;28;20094;-85
2021/04/16 01:02:48;;;;;;;3.83;2.83;;;2.60;99.90;;;;;;5026463;28;20045;-85
2021/04/16 01:05:15;;;;;;;5.18;3.38;;;2.60;99.90;;;;;;5026438;28;20128;-84
2021/04/16 01:07:41;;;;;;;5.45;3.22;;;2.50;99.90;;;;;;5005215;28;20062;-84
2021/04/16 01:10:09;;;;;;;10.23;3.17;;;2.50;99.90;;;;;;5006806;28;20413;-84
2021/04/16 01:12:36;;;;;;;5.43;3.33;;;2.50;99.90;;;;;;5008402;28;20050;-83
2021/04/16 01:15:17;;;;;;;6.00;3.67;;;2.50;99.90;;;;;;5010312;28;20153;-84
2021/04/16 01:17:47;;;;;;;6.07;3.35;;;2.50;99.90;;;;;;5004130;28;20120;-85
2021/04/16 01:20:16;;;;;;;7.28;3.70;;;2.50;99.90;;;;;;5011504;28;20076;-85
2021/04/16 01:22:55;;;;;;;4.85;3.05;;;2.50;99.90;;;;;;5007702;28;20049;-84
2021/04/16 01:25:23;;;;;;;8.55;3.92;;;2.40;99.90;;;;;;5023858;28;20493;-85
2021/04/16 01:27:49;;;;;;;6.50;3.13;;;2.40;99.90;;;;;;5007493;28;20060;-83
2021/04/16 01:30:25;;;;;;;8.48;3.38;;;2.40;99.90;;;;;;5023610;28;20045;-85
2021/04/16 01:32:53;;;;;;;10.95;3.53;;;2.40;99.90;;;;;;5007386;28;20119;-84
2021/04/16 01:35:29;;;;;;;5.00;2.85;;;2.40;99.90;;;;;;5020698;28;20060;-85
2021/04/16 01:37:56;;;;;;;7.05;3.25;;;2.40;99.90;;;;;;5017630;28;20060;-84
2021/04/16 01:40:22;;;;;;;4.85;2.80;;;2.40;99.90;;;;;;5019338;28;20068;-85
2021/04/16 01:42:49;;;;;;;8.93;3.10;;;2.30;99.90;;;;;;5003319;28;20052;-85
2021/04/16 01:45:26;;;;;;;7.57;2.90;;;2.30;99.90;;;;;;5016855;28;20099;-85
2021/04/16 01:48:01;;;;;;;5.32;3.13;;;2.30;99.90;;;;;;5001452;28;20136;-85
2021/04/16 01:50:28;;;;;;;5.78;2.90;;;2.30;99.90;;;;;;5004004;28;20050;-85
2021/04/16 01:52:58;;;;;;;5.93;3.13;;;2.30;99.90;;;;;;5016123;28;20050;-84
2021/04/16 01:55:24;;;;;;;10.35;3.30;;;2.30;99.90;;;;;;5017915;28;20056;-85
2021/04/16 01:57:51;;;;;;;6.30;3.63;;;2.30;99.90;;;;;;5017582;28;20112;-84
2021/04/16 02:00:31;;;;;;;4.57;3.08;;;2.30;99.90;;;;;;5018432;28;20084;-85
2021/04/16 02:02:57;;;;;;;10.60;3.30;;;2.30;99.90;;;;;;5001792;28;20220;-85
2021/04/16 02:05:24;;;;;;;4.70;2.88;;;2.30;99.90;;;;;;5005929;28;20544;-85
2021/04/16 02:07:53;;;;;;;5.90;2.65;;;2.30;99.90;;;;;;5022167;28;20478;-85
2021/04/16 02:10:20;;;;;;;8.45;4.13;;;2.30;99.90;;;;;;5006353;28;20054;-85
2021/04/16 02:12:46;;;;;;;7.70;3.72;;;2.20;99.90;;;;;;5026548;28;20068;-84
2021/04/16 02:15:13;;;;;;;6.55;2.80;;;2.20;99.90;;;;;;5009428;28;20484;-83
2021/04/16 02:17:39;;;;;;;4.10;2.53;;;2.20;99.90;;;;;;5015058;28;20045;-85
2021/04/16 02:20:15;;;;;;;8.30;3.55;;;2.20;99.90;;;;;;5005894;28;20569;-85
2021/04/16 02:22:41;;;;;;;5.90;3.45;;;2.20;99.90;;;;;;5006397;28;20049;-85
2021/04/16 02:25:08;;;;;;;6.32;3.35;;;2.10;99.90;;;;;;5028054;28;20050;-85
2021/04/16 02:27:35;;;;;;;4.88;2.58;;;2.10;99.90;;;;;;5009390;28;20065;-84
2021/04/16 02:30:03;;;;;;;5.80;3.00;;;2.10;99.90;;;;;;5002295;28;20097;-85
2021/04/16 02:32:29;;;;;;;6.97;3.00;;;2.10;99.90;;;;;;5001324;28;20150;-84
2021/04/16 02:34:56;;;;;;;5.85;2.85;;;2.10;99.90;;;;;;5005323;28;20147;-84
2021/04/16 02:37:23;;;;;;;4.63;2.70;;;2.00;99.90;;;;;;5001116;28;20045;-84
2021/04/16 02:39:50;;;;;;;5.05;2.80;;;2.00;99.90;;;;;;5018224;28;20452;-84
2021/04/16 02:42:16;;;;;;;5.60;2.75;;;2.00;99.90;;;;;;5004846;28;20088;-83
2021/04/16 02:44:43;;;;;;;11.02;2.60;;;2.00;99.90;;;;;;5006611;28;20046;-84
2021/04/16 02:47:11;;;;;;;5.28;3.17;;;2.00;99.90;;;;;;5001570;28;20046;-84
2021/04/16 02:49:38;;;;;;;4.25;2.58;;;2.00;99.90;;;;;;5019044;28;21446;-83
2021/04/16 02:52:05;;;;;;;6.32;2.83;;;2.00;99.90;;;;;;4998699;28;20046;-84
2021/04/16 02:54:32;;;;;;;11.68;3.22;;;2.00;99.90;;;;;;5004204;28;20053;-84
2021/04/16 02:56:58;;;;;;;7.47;3.35;;;2.00;99.90;;;;;;5002597;28;20114;-84
2021/04/16 02:59:25;;;;;;;12.45;5.30;;;1.90;99.90;;;;;;5002535;28;20120;-84
2021/04/16 03:01:52;;;;;;;10.18;3.67;;;1.90;99.90;;;;;;5015065;28;20059;-84
2021/04/16 03:04:19;;;;;;;6.88;3.85;;;1.90;99.90;;;;;;5000544;28;20057;-84
2021/04/16 03:06:45;;;;;;;8.35;4.10;;;1.90;99.90;;;;;;5018452;28;20464;-84
2021/04/16 03:09:12;;;;;;;9.48;4.00;;;1.90;99.90;;;;;;5008273;28;20049;-84
2021/04/16 03:11:39;;;;;;;13.40;5.35;;;1.90;99.90;;;;;;5001059;28;20058;-84
2021/04/16 03:14:06;;;;;;;19.30;6.47;;;1.80;99.90;;;;;;5001160;28;20057;-84
2021/04/16 03:16:33;;;;;;;18.75;6.80;;;1.80;99.90;;;;;;5006007;28;20596;-84
2021/04/16 03:19:01;;;;;;;21.67;7.35;;;1.80;99.90;;;;;;5008623;28;20613;-85
2021/04/16 03:21:28;;;;;;;21.55;9.95;;;1.70;99.90;;;;;;5010685;28;20038;-84
2021/04/16 03:23:55;;;;;;;26.13;9.80;;;1.70;99.90;;;;;;5010798;28;20081;-85
2021/04/16 03:26:22;;;;;;;24.63;10.55;;;1.70;99.90;;;;;;5010793;28;20470;-84
2021/04/16 03:28:57;;;;;;;28.02;10.93;;;1.70;99.90;;;;;;5006327;28;20056;-84
2021/04/16 03:31:25;;;;;;;25.83;10.43;;;1.70;99.90;;;;;;5008860;28;20049;-83
2021/04/16 03:33:52;;;;;;;23.20;9.57;;;1.70;99.90;;;;;;5024908;28;20053;-84
2021/04/16 03:36:19;;;;;;;22.50;9.88;;;1.70;99.90;;;;;;5007977;28;20050;-83
2021/04/16 03:38:46;;;;;;;21.65;9.63;;;1.70;99.90;;;;;;5010342;28;20049;-84
2021/04/16 03:41:13;;;;;;;27.55;10.20;;;1.70;99.90;;;;;;5017836;28;20054;-85
2021/04/16 03:43:40;;;;;;;20.35;8.05;;;1.70;99.90;;;;;;5015154;28;20049;-84
2021/04/16 03:46:06;;;;;;;23.33;8.32;;;1.70;99.90;;;;;;5013610;28;20056;-85
2021/04/16 03:48:33;;;;;;;19.88;8.07;;;1.70;99.90;;;;;;5012247;28;20516;-84
2021/04/16 03:50:59;;;;;;;20.90;8.65;;;1.70;99.90;;;;;;5010920;28;20784;-84
2021/04/16 03:53:29;;;;;;;16.77;7.35;;;1.70;99.90;;;;;;5012872;28;20129;-85
2021/04/16 03:55:57;;;;;;;19.88;6.88;;;1.70;99.90;;;;;;5011258;28;20081;-85
2021/04/16 03:58:23;;;;;;;15.82;5.93;;;1.70;99.90;;;;;;5008195;28;20054;-84
2021/04/16 04:00:50;;;;;;;15.02;6.43;;;1.70;99.90;;;;;;5015317;28;20487;-84
2021/04/16 04:03:21;;;;;;;16.63;7.55;;;1.70;99.90;;;;;;5009607;28;20096;-84
2021/04/16 04:05:47;;;;;;;10.15;5.82;;;1.70;99.90;;;;;;5008167;28;20050;-85
2021/04/16 04:08:13;;;;;;;13.98;5.80;;;1.70;99.90;;;;;;5023975;28;20409;-85
2021/04/16 04:10:40;;;;;;;13.20;6.13;;;1.70;99.90;;;;;;4998852;28;20065;-85
2021/04/16 04:13:10;;;;;;;14.18;5.68;;;1.60;99.90;;;;;;4997780;28;20765;-84
2021/04/16 04:15:37;;;;;;;16.00;6.43;;;1.60;99.90;;;;;;5007643;28;20054;-84
2021/04/16 04:18:15;;;;;;;11.15;5.38;;;1.60;99.90;;;;;;5006833;28;20085;-84
2021/04/16 04:20:41;;;;;;;9.15;4.53;;;1.60;99.90;;;;;;5006804;28;20046;-85
2021/04/16 04:23:09;;;;;;;11.00;5.25;;;1.60;99.90;;;;;;5017114;28;20053;-84
2021/04/16 04:25:36;;;;;;;14.23;6.55;;;1.60;99.90;;;;;;5023060;28;20045;-84
2021/04/16 04:28:05;;;;;;;9.50;4.30;;;1.60;99.90;;;;;;5021375;28;20128;-84
2021/04/16 04:30:35;;;;;;;13.65;5.13;;;1.60;99.90;;;;;;5023935;28;20537;-85
2021/04/16 04:33:03;;;;;;;8.52;4.88;;;1.50;99.90;;;;;;5023688;28;20068;-84
2021/04/16 04:35:30;;;;;;;11.07;5.55;;;1.50;99.90;;;;;;5013274;28;20046;-84
2021/04/16 04:37:56;;;;;;;10.00;5.20;;;1.50;99.90;;;;;;5008100;28;20045;-84
2021/04/16 04:40:24;;;;;;;13.63;6.35;;;1.50;99.90;;;;;;5009135;28;20051;-84
2021/04/16 04:42:50;;;;;;;10.65;5.65;;;1.50;99.90;;;;;;5008466;28;20076;-83
2021/04/16 04:45:18;;;;;;;12.20;5.93;;;1.50;99.90;;;;;;5022986;28;20054;-85
2021/04/16 04:47:44;;;;;;;12.18;4.97;;;1.50;99.90;;;;;;5009308;28;20073;-84
2021/04/16 04:50:12;;;;;;;12.15;5.65;;;1.60;99.90;;;;;;5004990;28;23028;-85
2021/04/16 04:52:39;;;;;;;10.23;5.22;;;1.60;99.90;;;;;;5024152;28;20088;-84
2021/04/16 04:55:13;;;;;;;12.82;4.88;;;1.60;99.90;;;;;;5006932;28;20064;-84
2021/04/16 04:57:40;;;;;;;14.07;5.38;;;1.60;99.90;;;;;;5024045;28;20137;-83
2021/04/16 05:00:09;;;;;;;9.48;5.38;;;1.60;99.90;;;;;;5000018;28;20046;-84
2021/04/16 05:02:37;;;;;;;12.00;4.78;;;1.70;99.90;;;;;;5002034;28;20054;-83
2021/04/16 05:05:04;;;;;;;16.88;4.82;;;1.70;99.90;;;;;;5007142;28;20512;-84
2021/04/16 05:07:30;;;;;;;9.60;5.30;;;1.70;99.90;;;;;;5001174;28;20108;-84
2021/04/16 05:09:57;;;;;;;8.60;4.88;;;1.70;99.90;;;;;;5017786;28;20073;-85
2021/04/16 05:12:23;;;;;;;12.43;5.95;;;1.70;99.90;;;;;;5008041;28;20148;-85
2021/04/16 05:14:49;;;;;;;11.38;4.45;;;1.70;99.90;;;;;;5003022;28;20061;-84
2021/04/16 05:17:16;;;;;;;11.55;6.63;;;1.70;99.90;;;;;;5016044;28;20058;-83
2021/04/16 05:19:42;;;;;;;12.07;6.15;;;1.70;99.90;;;;;;5014946;28;20060;-86
2021/04/16 05:22:13;;;;;;;13.50;6.28;;;1.70;99.90;;;;;;5024420;28;20054;-85
2021/04/16 05:24:39;;;;;;;15.85;6.63;;;1.70;99.90;;;;;;5014411;28;20053;-85
2021/04/16 05:27:09;;;;;;;17.00;6.70;;;1.80;99.90;;;;;;5014142;28;20077;-84
2021/04/16 05:29:36;;;;;;;13.40;5.65;;;1.80;99.90;;;;;;5021697;28;20104;-85
2021/04/16 05:32:03;;;;;;;10.02;5.30;;;1.90;99.90;;;;;;5022944;28;20132;-84
2021/04/16 05:34:29;;;;;;;10.20;6.13;;;1.90;99.90;;;;;;5005841;28;20073;-84
2021/04/16 05:36:56;;;;;;;12.07;5.70;;;2.00;99.90;;;;;;5008504;28;20050;-84
2021/04/16 05:39:23;;;;;;;13.07;7.28;;;2.10;99.90;;;;;;5016556;28;20080;-85
2021/04/16 05:41:49;;;;;;;16.58;6.20;;;2.20;99.90;;;;;;5010474;28;20133;-84
2021/04/16 05:44:15;;;;;;;10.55;6.22;;;2.30;99.90;;;;;;5022909;28;20057;-85
2021/04/16 05:46:42;;;;;;;9.77;5.47;;;2.50;99.90;;;;;;5004270;28;20132;-84
2021/04/16 05:49:08;;;;;;;11.07;5.65;;;2.60;99.90;;;;;;5001159;28;20065;-84
2021/04/16 05:51:36;;;;;;;8.25;4.97;;;2.70;99.90;;;;;;5016533;28;20063;-83
2021/04/16 05:54:03;;;;;;;11.68;5.78;;;2.80;99.90;;;;;;5022636;28;20561;-84
2021/04/16 05:56:30;;;;;;;9.32;5.35;;;2.90;99.90;;;;;;5016345;28;20052;-85
2021/04/16 05:58:56;;;;;;;8.35;4.75;;;3.10;99.90;;;;;;5003368;28;20410;-84
2021/04/16 06:01:22;;;;;;;10.90;4.97;;;3.20;99.90;;;;;;5001481;28;20290;-84
2021/04/16 06:03:48;;;;;;;14.75;5.18;;;3.50;99.90;;;;;;5000674;28;20046;-84
2021/04/16 06:06:15;;;;;;;10.45;4.57;;;3.80;99.90;;;;;;5016436;28;20930;-84
2021/04/16 06:08:42;;;;;;;16.27;8.30;;;4.20;99.90;;;;;;5006605;28;20061;-83
2021/04/16 06:11:09;;;;;;;13.68;6.85;;;4.50;99.90;;;;;;5005088;28;20378;-83
2021/04/16 06:13:37;;;;;;;12.05;6.13;;;4.80;99.90;;;;;;5020461;28;20069;-83
2021/04/16 06:16:08;;;;;;;21.10;9.93;;;5.00;99.90;;;;;;5020595;28;20073;-83
2021/04/16 06:18:35;;;;;;;18.88;9.20;;;5.30;99.90;;;;;;5000600;28;20058;-83
2021/04/16 06:21:02;;;;;;;8.68;5.03;;;5.50;99.90;;;;;;4999258;28;20057;-84
2021/04/16 06:23:28;;;;;;;13.10;5.70;;;5.70;99.90;;;;;;5002568;28;20077;-84
2021/04/16 06:25:55;;;;;;;11.35;5.97;;;6.00;99.90;;;;;;5007922;28;20057;-83
2021/04/16 06:28:22;;;;;;;9.35;4.90;;;6.30;99.90;;;;;;5002958;28;20058;-83
2021/04/16 06:30:49;;;;;;;20.48;5.10;;;6.50;99.90;;;;;;5017295;28;20073;-83
2021/04/16 06:33:25;;;;;;;8.90;4.43;;;6.70;99.90;;;;;;5013858;28;20061;-83
2021/04/16 06:35:55;;;;;;;12.55;5.07;;;7.00;99.90;;;;;;5002471;28;20054;-84
2021/04/16 06:38:25;;;;;;;10.95;3.97;;;7.30;99.90;;;;;;5005670;28;20490;-84
2021/04/16 06:40:53;;;;;;;11.60;4.45;;;7.60;99.90;;;;;;5020517;28;20060;-84
2021/04/16 06:43:22;;;;;;;7.75;3.70;;;7.80;99.90;;;;;;5021258;28;20168;-84
2021/04/16 06:45:58;;;;;;;9.15;3.90;;;8.00;99.90;;;;;;5019611;28;20052;-83
2021/04/16 06:48:25;;;;;;;10.13;4.88;;;8.20;99.90;;;;;;5020578;28;20049;-82
2021/04/16 06:50:58;;;;;;;9.27;3.28;;;8.20;99.90;;;;;;5006566;28;20088;-84
2021/04/16 06:53:46;;;;;;;10.73;3.50;;;8.20;99.90;;;;;;5023331;28;20046;-83
2021/04/16 06:56:22;;;;;;;6.65;3.92;;;8.10;99.90;;;;;;5024246;28;20117;-83
2021/04/16 06:59:17;;;;;;;6.65;3.97;;;8.00;99.90;;;;;;5005423;28;20034;-83
2021/04/16 07:02:03;;;;;;;19.60;5.75;;;7.90;99.90;;;;;;5011599;28;20069;-83
2021/04/16 07:04:47;;;;;;;9.85;4.97;;;7.80;99.90;;;;;;5008067;28;20046;-83
2021/04/16 07:07:36;;;;;;;8.48;4.90;;;7.70;99.90;;;;;;5005904;28;20541;-83
2021/04/16 07:10:14;;;;;;;9.20;3.80;;;7.70;99.90;;;;;;4994189;28;20065;-82
2021/04/16 07:12:42;;;;;;;12.25;4.95;;;7.80;99.90;;;;;;4997449;28;20054;-83
2021/04/16 07:15:16;;;;;;;7.88;3.97;;;7.70;99.90;;;;;;5025375;28;20129;-83
2021/04/16 07:17:45;;;;;;;23.50;6.57;;;7.70;99.90;;;;;;5002948;28;20138;-82
2021/04/16 07:20:14;;;;;;;12.10;5.20;;;7.70;99.90;;;;;;5004361;28;20493;-83
2021/04/16 07:22:53;;;;;;;8.73;3.58;;;7.70;99.90;;;;;;4998739;28;20416;-83
2021/04/16 07:25:33;;;;;;;13.07;3.97;;;7.80;99.90;;;;;;5008909;28;20056;-82
2021/04/16 07:28:13;;;;;;;10.07;2.95;;;7.80;99.90;;;;;;5023374;28;20072;-83
2021/04/16 07:30:50;;;;;;;10.02;5.07;;;8.00;99.90;;;;;;5008105;28;20640;-82
2021/04/16 07:33:25;;;;;;;5.90;3.22;;;8.10;99.90;;;;;;5022483;28;20082;-84
2021/04/16 07:36:11;;;;;;;14.80;5.03;;;8.10;99.90;;;;;;4998333;28;20084;-84
2021/04/16 07:38:38;;;;;;;10.43;3.70;;;8.20;99.90;;;;;;5008081;28;20052;-84
2021/04/16 07:41:23;;;;;;;11.68;3.15;;;8.30;99.90;;;;;;5010703;28;20041;-83
2021/04/16 07:43:52;;;;;;;4.22;2.40;;;8.50;99.90;;;;;;5008805;28;20060;-83
2021/04/16 07:46:27;;;;;;;8.75;3.95;;;8.60;99.90;;;;;;5025608;28;20077;-83
2021/04/16 07:49:23;;;;;;;18.92;5.78;;;8.70;99.90;;;;;;5023918;28;20401;-83
2021/04/16 07:51:53;;;;;;;10.15;3.20;;;8.90;99.90;;;;;;5001101;28;20060;-83
2021/04/16 07:54:23;;;;;;;7.05;3.22;;;9.00;99.90;;;;;;5009386;28;20042;-84
2021/04/16 07:57:18;;;;;;;7.32;2.92;;;9.10;99.90;;;;;;5014615;28;20132;-83
2021/04/16 08:00:03;;;;;;;5.82;2.67;;;9.20;99.90;;;;;;5005310;28;20060;-83
2021/04/16 08:02:36;;;;;;;10.77;4.68;;;9.30;99.90;;;;;;5007038;28;20045;-83
2021/04/16 08:05:24;;;;;;;7.88;3.58;;;9.40;99.90;;;;;;5024315;28;20136;-84
2021/04/16 08:08:09;;;;;;;8.88;2.80;;;9.50;99.90;;;;;;5015163;28;20132;-85
2021/04/16 08:10:38;;;;;;;7.10;3.20;;;9.70;99.90;;;;;;5006013;28;20117;-83
2021/04/16 08:13:27;;;;;;;11.23;3.28;;;9.80;99.90;;;;;;5025257;28;20096;-83
2021/04/16 08:16:09;;;;;;;8.05;2.97;;;9.90;99.90;;;;;;5023975;28;20054;-83
2021/04/16 08:18:36;;;;;;;5.72;2.60;;;9.90;99.90;;;;;;5005779;28;20536;-83
2021/04/16 08:21:04;;;;;;;7.60;2.80;;;10.00;99.90;;;;;;5009867;28;20144;-83
2021/04/16 08:23:39;;;;;;;6.40;2.90;;;10.20;99.90;;;;;;5001026;28;20147;-83
2021/04/16 08:26:09;;;;;;;3.85;2.05;;;10.30;99.90;;;;;;5023278;28;20069;-84
2021/04/16 08:28:53;;;;;;;6.80;2.75;;;10.40;99.90;;;;;;5006898;28;20057;-83
2021/04/16 08:31:32;;;;;;;5.68;2.17;;;10.60;99.90;;;;;;5003992;28;20109;-84
2021/04/16 08:34:10;;;;;;;9.05;2.20;;;10.80;99.90;;;;;;5009199;28;20052;-84
2021/04/16 08:36:39;;;;;;;6.00;2.25;;;10.90;99.90;;;;;;4990406;28;20053;-83
2021/04/16 08:39:27;;;;;;;3.30;2.20;;;11.00;99.90;;;;;;5023479;28;20050;-84
2021/04/16 08:42:04;;;;;;;4.25;1.90;;;11.10;99.90;;;;;;5017897;28;20062;-84
2021/04/16 08:44:39;;;;;;;4.90;1.70;;;11.20;94.20;;;;;;5017344;28;20050;-85
2021/04/16 08:47:18;;;;;;;3.83;1.88;;;11.20;94.90;;;;;;5006383;28;20057;-84
2021/04/16 08:49:44;;;;;;;4.55;1.83;;;11.20;95.90;;;;;;5008149;28;20065;-85
2021/04/16 08:52:22;;;;;;;3.95;2.00;;;11.30;96.20;;;;;;5015818;28;20545;-84
2021/04/16 08:54:50;;;;;;;3.03;1.60;;;11.50;94.40;;;;;;5023070;28;20050;-85
2021/04/16 08:57:25;;;;;;;3.88;1.73;;;11.60;89.20;;;;;;5008005;28;20105;-85
2021/04/16 09:00:16;;;;;;;4.07;1.73;;;11.70;85.50;;;;;;5002791;28;20049;-85
2021/04/16 09:02:54;;;;;;;5.45;2.35;;;11.70;84.10;;;;;;5020558;28;20160;-83
2021/04/16 09:05:30;;;;;;;6.65;1.85;;;11.70;85.80;;;;;;5006722;28;20050;-84
2021/04/16 09:08:19;;;;;;;6.57;1.95;;;11.80;89.80;;;;;;4997718;28;20054;-84
2021/04/16 09:10:53;;;;;;;4.63;1.80;;;11.80;80.10;;;;;;5003609;28;20508;-85
2021/04/16 09:13:38;;;;;;;5.38;2.00;;;11.70;77.90;;;;;;5002790;28;20046;-84
2021/04/16 09:16:47;;;;;;;6.28;2.08;;;11.70;82.90;;;;;;5004350;28;20056;-84
2021/04/16 09:19:26;;;;;;;2.55;2.00;;;11.80;81.70;;;;;;5005553;28;20042;-85
2021/04/16 09:22:05;;;;;;;4.57;1.58;;;12.00;78.40;;;;;;5004837;28;20053;-85
2021/04/16 09:24:52;;;;;;;6.85;2.00;;;12.10;71.20;;;;;;5019769;28;20482;-84
2021/04/16 09:27:36;;;;;;;4.75;1.65;;;12.10;69.20;;;;;;4999298;28;20050;-84
2021/04/16 09:30:08;;;;;;;;;;;12.10;71.60;;;;;;5021199;28;20176;-84
2021/04/16 09:32:39;;;;;;;6.88;2.63;;;12.10;75.20;;;;;;5019012;28;19933;-84
2021/04/16 09:35:31;;;;;;;8.27;2.97;;;12.30;70.70;;;;;;5018633;28;20414;-84
2021/04/16 09:38:28;;;;;;;4.07;2.15;;;12.40;69.10;;;;;;5003597;28;20103;-84
2021/04/16 09:41:20;;;;;;;4.03;2.35;;;12.50;64.90;;;;;;5007084;28;20050;-83
2021/04/16 09:43:51;;;;;;;3.67;2.15;;;12.50;65.20;;;;;;5019076;28;20133;-84
2021/04/16 09:46:35;;;;;;;4.40;2.22;;;12.60;64.30;;;;;;5007154;28;20042;-84
2021/04/16 09:49:24;;;;;;;7.57;2.10;;;12.60;64.40;;;;;;5018140;28;20045;-85
2021/04/16 09:51:53;;;;;;;2.47;1.60;;;12.70;65.20;;;;;;5004752;28;20133;-85
2021/04/16 09:54:22;;;;;;;2.15;1.10;;;12.80;62.40;;;;;;5034860;28;20040;-85
2021/04/16 09:57:00;;;;;;;3.25;1.05;;;12.80;61.40;;;;;;5037392;28;20120;-85
2021/04/16 09:59:41;;;;;;;2.80;0.95;;;12.90;59.80;;;;;;5034380;28;20042;-85
2021/04/16 10:02:14;;;;;;;1.88;1.15;;;12.90;56.60;;;;;;5017273;28;20046;-86
2021/04/16 10:04:55;;;;;;;2.20;1.20;;;12.90;57.10;;;;;;5016843;28;20042;-85
2021/04/16 10:07:50;;;;;;;1.55;0.90;;;12.90;56.60;;;;;;5020426;28;20446;-84
2021/04/16 10:10:26;;;;;;;2.28;1.20;;;12.90;57.10;;;;;;5038944;28;20076;-84
2021/04/16 10:13:34;;;;;;;3.65;1.10;;;12.90;59.30;;;;;;5017254;28;20046;-84
2021/04/16 10:16:26;;;;;;;2.03;1.00;;;13.10;58.40;;;;;;4983172;28;20065;-84
2021/04/16 10:18:53;;;;;;;1.52;0.85;;;13.30;59.30;;;;;;5002860;28;20540;-86
2021/04/16 10:21:27;;;;;;;1.88;0.70;;;13.50;58.00;;;;;;5023499;28;20075;-85
2021/04/16 10:28:14;;;;;;;2.85;0.93;;;13.60;57.40;;;;;;5010790;28;20046;-86
2021/04/16 12:38:56;;;;;;;1.23;1.05;;;20.00;42.30;;;;;;5008163;28;20049;-85
2021/04/16 12:41:24;;;;;;;;;;;20.60;40.20;;;;;;5026109;28;20050;-85
2021/04/16 12:43:52;;;;;;;2.85;1.15;;;21.40;39.80;;;;;;5024826;28;19971;-83
2021/04/16 12:46:25;;;;;;;2.92;1.02;;;22.00;35.40;;;;;;5007887;28;20054;-84
2021/04/16 12:48:52;;;;;;;3.45;0.82;;;21.90;37.10;;;;;;5009719;28;20049;-83
2021/04/16 12:51:19;;;;;;;5.82;2.35;;;22.10;37.80;;;;;;5008787;28;22806;-84
2021/04/16 12:53:45;;;;;;;2.03;1.38;;;22.40;36.00;;;;;;5008663;28;20065;-85
2021/04/16 12:56:21;;;;;;;1.48;0.85;;;22.60;36.10;;;;;;5023383;28;20123;-83
2021/04/16 12:58:48;;;;;;;1.38;0.93;;;23.00;36.10;;;;;;5006559;28;20113;-84
2021/04/16 13:01:27;;;;;;;0.93;0.77;;;23.50;34.40;;;;;;5023474;28;20133;-84
2021/04/16 13:03:54;;;;;;;1.30;0.90;;;23.80;33.00;;;;;;5000025;28;20133;-84
2021/04/16 13:06:24;;;;;;;1.83;0.80;;;23.50;33.90;;;;;;5007152;28;20049;-85
2021/04/16 13:08:51;;;;;;;1.95;1.30;;;23.80;36.60;;;;;;5005785;28;20081;-84
2021/04/16 13:11:18;;;;;;;2.20;1.17;;;24.40;34.00;;;;;;5005179;28;21654;-85
2021/04/16 13:13:45;;;;;;;2.92;1.63;;;24.90;34.10;;;;;;5021234;28;20133;-84
2021/04/16 13:16:11;;;;;;;3.90;1.67;;;25.00;34.00;;;;;;5008494;28;20848;-84
2021/04/16 13:18:41;;;;;;;1.20;1.02;;;24.80;33.00;;;;;;5009226;28;20524;-84
2021/04/16 13:21:16;;;;;;;3.50;1.30;;;24.40;32.70;;;;;;5012459;28;20074;-85
2021/04/16 13:23:44;;;;;;;1.08;0.85;;;23.20;34.80;;;;;;5024216;28;20120;-84
2021/04/16 13:26:10;;;;;;;4.60;1.40;;;23.00;34.20;;;;;;5019340;28;20109;-84
2021/04/16 13:28:37;;;;;;;3.67;1.52;;;23.10;37.30;;;;;;5010088;28;20057;-84
2021/04/16 13:31:05;;;;;;;2.13;0.95;;;23.90;35.80;;;;;;5008891;28;20049;-84
2021/04/16 13:33:38;;;;;;;3.83;1.02;;;24.40;34.00;;;;;;5009452;28;20054;-84
2021/04/16 13:36:06;;;;;;;2.67;1.10;;;24.10;32.70;;;;;;5026324;28;20049;-84
2021/04/16 13:38:33;;;;;;;2.05;1.17;;;23.10;34.00;;;;;;5020100;28;20118;-84
2021/04/16 13:41:01;;;;;;;5.50;1.67;;;22.00;35.20;;;;;;5012562;28;20058;-84
2021/04/16 13:43:29;;;;;;;1.90;1.13;;;21.30;37.00;;;;;;5011314;28;20076;-84
2021/04/16 13:46:00;;;;;;;2.45;1.00;;;21.70;38.30;;;;;;4992758;28;20127;-84
2021/04/16 13:48:27;;;;;;;2.30;1.05;;;22.80;37.70;;;;;;5007766;28;20069;-85
2021/04/16 13:50:54;;;;;;;2.50;1.08;;;23.40;35.10;;;;;;5016347;28;20504;-84
2021/04/16 13:53:20;;;;;;;1.00;0.90;;;23.80;35.00;;;;;;5006459;28;20162;-84
2021/04/16 13:55:48;;;;;;;3.10;1.10;;;24.10;33.50;;;;;;5012999;28;20053;-84
2021/04/16 13:58:14;;;;;;;3.97;1.20;;;24.60;33.30;;;;;;5005546;28;20133;-86
2021/04/16 14:00:41;;;;;;;2.15;1.13;;;25.20;32.20;;;;;;5021356;28;20057;-84
2021/04/16 14:03:28;;;;;;;1.55;0.90;;;24.80;32.20;;;;;;5023094;28;20069;-84
2021/04/16 14:05:58;;;;;;;2.47;1.30;;;23.40;33.40;;;;;;5022183;28;20436;-85
2021/04/16 14:08:37;;;;;;;2.67;1.10;;;21.60;34.90;;;;;;5010069;28;20074;-85
2021/04/16 14:11:05;;;;;;;3.65;1.33;;;20.30;38.30;;;;;;5013458;28;20046;-85
2021/04/16 14:13:33;;;;;;;2.40;1.02;;;20.60;38.60;;;;;;5017114;28;20053;-85
2021/04/16 14:16:06;;;;;;;2.50;1.10;;;21.80;38.50;;;;;;5009965;28;20404;-85
2021/04/16 14:18:41;;;;;;;2.47;1.00;;;23.30;36.60;;;;;;5000066;28;20069;-85
2021/04/16 14:21:13;;;;;;;7.57;1.42;;;24.40;34.70;;;;;;5017526;28;20072;-84
2021/04/16 14:23:43;;;;;;;1.92;0.93;;;25.20;33.80;;;;;;5020348;28;20085;-83
2021/04/16 14:26:09;;;;;;;1.27;1.00;;;25.40;32.30;;;;;;5028071;28;20061;-84
2021/04/16 14:28:37;;;;;;;2.92;1.00;;;23.80;33.90;;;;;;5012272;28;20112;-84
2021/04/16 14:31:05;;;;;;;2.67;1.17;;;22.00;36.00;;;;;;5012663;28;20198;-85
2021/04/16 14:33:37;;;;;;;6.40;1.40;;;20.50;38.90;;;;;;5012623;28;20080;-84
2021/04/16 14:36:23;;;;;;;2.47;0.98;;;19.60;40.80;;;;;;5023513;28;20058;-85
2021/04/16 14:38:50;;;;;;;3.83;1.20;;;19.80;41.50;;;;;;5027233;28;20069;-84
2021/04/16 14:41:21;;;;;;;3.72;1.45;;;20.70;39.80;;;;;;5012488;28;20054;-85
2021/04/16 14:43:47;;;;;;;2.55;1.33;;;21.70;38.30;;;;;;5028115;28;20050;-85
2021/04/16 14:46:13;;;;;;;2.72;1.33;;;21.80;37.80;;;;;;5011718;28;20050;-85
2021/04/16 14:48:40;;;;;;;2.65;1.38;;;21.40;39.30;;;;;;5009958;28;20557;-84
2021/04/16 14:51:08;;;;;;;2.25;1.27;;;21.90;40.00;;;;;;5024898;28;20120;-84
2021/04/16 14:53:49;;;;;;;4.35;1.65;;;22.60;36.90;;;;;;5027344;28;20046;-85
2021/04/16 14:56:19;;;;;;;3.60;1.45;;;21.70;37.30;;;;;;5008849;28;20054;-84
2021/04/16 14:58:49;;;;;;;1.73;1.50;;;20.60;38.90;;;;;;5014952;28;20045;-84
2021/04/16 15:01:17;;;;;;;2.03;1.25;;;19.70;41.20;;;;;;5012221;28;20049;-85
2021/04/16 15:03:49;;;;;;;2.78;2.00;;;19.00;41.50;;;;;;5012455;28;20118;-84
2021/04/16 15:06:21;;;;;;;2.80;1.40;;;18.50;43.40;;;;;;5021562;28;20080;-84
2021/04/16 15:08:56;;;;;;;4.75;1.45;;;18.80;41.60;;;;;;5027450;28;20081;-84
2021/04/16 15:11:28;;;;;;;4.82;1.73;;;18.90;40.80;;;;;;5013140;28;20046;-85
2021/04/16 15:13:54;;;;;;;2.67;1.17;;;18.40;41.70;;;;;;4988853;28;20456;-85
2021/04/16 15:16:21;;;;;;;3.17;1.40;;;17.90;42.80;;;;;;5023354;28;20068;-85
2021/04/16 15:18:48;;;;;;;1.52;1.23;;;17.40;44.30;;;;;;5029505;28;20145;-84
2021/04/16 15:21:17;;;;;;;2.42;1.38;;;16.80;45.50;;;;;;5022468;28;20073;-85
2021/04/16 15:23:47;;;;;;;4.18;1.42;;;16.70;47.00;;;;;;5013183;28;20444;-85